Stormwatcher's Retreat Logo




                  Temp     Hi    Low   Out    Dew  Wind  Wind   Wind    Hi    Hi   Wind   Heat    THW   THSW                Rain  Solar   Solar Hi Solar   UV    UV    Hi     Heat    Cool    In     In    In     In     In   In Air          Wind  Wind    ISS   Arc.
  Date    Time     Out   Temp   Temp   Hum    Pt. Speed   Dir    Run Speed   Dir  Chill  Index  Index  Index   Bar    Rain  Rate   Rad.  Energy    Rad.  Index  Dose   UV     D-D     D-D    Temp   Hum    Dew   Heat    EMC Density     ET   Samp   Tx   Recept  Int.
------------------------------------------------------------------------------------------------------------------------------------------------------------------------------------------------------------------------------------------------------------------------
 9/24/17 12:10a   54.6   54.8   54.6    91   52.0   2.0     E   0.33   4.0   ENE   54.6   54.7   54.7   52.2  30.104  0.00  0.00     0     0.00      0     0.0  0.00   0.0   0.072   0.000   72.5    56   55.9   72.3  10.30  .0739    0.000   209    5    100.0   10 
 9/24/17 12:20a   54.7   54.8   54.7    91   52.1   1.0     E   0.17   4.0   ENE   54.7   54.8   54.8   52.3  30.102  0.00  0.00     0     0.00      0     0.0  0.00   0.0   0.072   0.000   72.5    56   55.9   72.3  10.30  .0739    0.000   211    5    100.0   10 
 9/24/17 12:30a   54.8   54.8   54.7    90   51.9   1.0     E   0.17   3.0     E   54.8   54.9   54.9   52.3  30.103  0.00  0.00     0     0.00      0     0.0  0.00   0.0   0.071   0.000   72.6    56   56.0   72.5  10.30  .0739    0.000   211    5    100.0   10 
 9/24/17 12:40a   54.9   54.9   54.8    90   52.0   2.0   ENE   0.33   4.0   ESE   54.9   55.0   55.0   52.5  30.104  0.00  0.00     0     0.00      0     0.0  0.00   0.0   0.070   0.000   72.6    56   56.0   72.5  10.30  .0739    0.000   213    5    100.0   10 
 9/24/17 12:50a   55.0   55.0   54.9    90   52.1   1.0     E   0.17   4.0   ESE   55.0   55.1   55.1   52.6  30.106  0.00  0.00     0     0.00      0     0.0  0.00   0.0   0.069   0.000   72.6    56   56.0   72.5  10.30  .0739    0.000   213    5    100.0   10 
 9/24/17  1:00a   54.8   55.0   54.8    90   51.9   1.0     E   0.17   2.0     E   54.8   54.9   54.9   52.3  30.109  0.00  0.00     0     0.00      0     0.0  0.00   0.0   0.071   0.000   72.6    55   55.5   72.4  10.10  .0739    0.000   212    5    100.0   10 
 9/24/17  1:10a   54.5   54.8   54.5    90   51.6   0.0     E   0.00   2.0     E   54.5   54.6   54.6   52.0  30.110  0.00  0.00     0     0.00      0     0.0  0.00   0.0   0.073   0.000   72.6    55   55.5   72.4  10.10  .0739    0.000   213    5    100.0   10 
 9/24/17  1:20a   54.4   54.6   54.4    90   51.5   0.0     E   0.00   1.0     E   54.4   54.5   54.5   51.9  30.110  0.00  0.00     0     0.00      0     0.0  0.00   0.0   0.074   0.000   72.6    55   55.5   72.4  10.10  .0739    0.000   212    5    100.0   10 
 9/24/17  1:30a   54.4   54.4   54.3    90   51.5   0.0   ---   0.00   0.0   ---   54.4   54.5   54.5   51.9  30.114  0.00  0.00     0     0.00      0     0.0  0.00   0.0   0.074   0.000   72.6    55   55.5   72.4  10.10  .0739    0.000   211    5    100.0   10 
 9/24/17  1:40a   54.3   54.4   54.3    90   51.4   0.0     E   0.00   1.0     E   54.3   54.4   54.4   51.8  30.115  0.00  0.00     0     0.00      0     0.0  0.00   0.0   0.074   0.000   72.6    55   55.5   72.4  10.10  .0739    0.000   214    5    100.0   10 
 9/24/17  1:50a   53.6   54.3   53.6    90   50.7   0.0     E   0.00   2.0     E   53.6   53.7   53.7   51.1  30.115  0.00  0.00     0     0.00      0     0.0  0.00   0.0   0.079   0.000   72.5    55   55.4   72.3  10.10  .0740    0.000   211    5    100.0   10 
 9/24/17  2:00a   53.2   53.6   53.2    90   50.3   0.0   ---   0.00   0.0   ---   53.2   53.3   53.3   50.7  30.115  0.00  0.00     0     0.00      0     0.0  0.00   0.0   0.082   0.000   72.5    55   55.4   72.3  10.10  .0740    0.000   210    5    100.0   10 
 9/24/17  2:10a   53.2   53.2   53.2    91   50.6   0.0   ---   0.00   0.0   ---   53.2   53.3   53.3   50.7  30.114  0.00  0.00     0     0.00      0     0.0  0.00   0.0   0.082   0.000   72.5    55   55.4   72.3  10.10  .0740    0.000   212    5    100.0   10 
 9/24/17  2:20a   53.5   53.5   53.2    91   50.9   0.0   ---   0.00   0.0   ---   53.5   53.6   53.6   51.0  30.115  0.00  0.00     0     0.00      0     0.0  0.00   0.0   0.080   0.000   72.5    55   55.4   72.3  10.10  .0740    0.000   211    5    100.0   10 
 9/24/17  2:30a   53.3   53.5   53.3    91   50.7   0.0   ---   0.00   0.0   ---   53.3   53.4   53.4   50.8  30.118  0.00  0.00     0     0.00      0     0.0  0.00   0.0   0.081   0.000   72.5    55   55.4   72.3  10.10  .0740    0.000   211    5    100.0   10 
 9/24/17  2:40a   53.3   53.3   53.2    91   50.7   0.0   ---   0.00   0.0   ---   53.3   53.4   53.4   50.8  30.114  0.00  0.00     0     0.00      0     0.0  0.00   0.0   0.081   0.000   72.5    55   55.4   72.3  10.10  .0740    0.000   213    5    100.0   10 
 9/24/17  2:50a   53.2   53.3   53.2    91   50.6   0.0   ---   0.00   0.0   ---   53.2   53.3   53.3   50.7  30.114  0.00  0.00     0     0.00      0     0.0  0.00   0.0   0.082   0.000   72.5    55   55.4   72.3  10.10  .0740    0.000   213    5    100.0   10 
 9/24/17  3:00a   52.9   53.2   52.9    91   50.3   0.0   ---   0.00   0.0   ---   52.9   53.0   53.0   50.4  30.117  0.00  0.00     0     0.00      0     0.0  0.00   0.0   0.084   0.000   72.4    55   55.3   72.1  10.10  .0740    0.000   212    5    100.0   10 
 9/24/17  3:10a   52.7   52.9   52.7    91   50.1   0.0   ---   0.00   0.0   ---   52.7   52.9   52.9   50.3  30.115  0.00  0.00     0     0.00      0     0.0  0.00   0.0   0.085   0.000   72.4    55   55.3   72.1  10.10  .0740    0.000   210    5    100.0   10 
 9/24/17  3:20a   52.6   52.7   52.5    91   50.0   0.0   ---   0.00   0.0   ---   52.6   52.8   52.8   50.2  30.115  0.00  0.00     0     0.00      0     0.0  0.00   0.0   0.086   0.000   72.4    55   55.3   72.1  10.10  .0740    0.000   212    5    100.0   10 
 9/24/17  3:30a   52.4   52.6   52.3    91   49.8   0.0   ---   0.00   0.0   ---   52.4   52.6   52.6   49.9  30.114  0.00  0.00     0     0.00      0     0.0  0.00   0.0   0.087   0.000   72.4    55   55.3   72.1  10.10  .0740    0.000   211    5    100.0   10 
 9/24/17  3:40a   52.5   52.5   52.3    92   50.2   0.0   ---   0.00   0.0   ---   52.5   52.7   52.7   50.1  30.111  0.00  0.00     0     0.00      0     0.0  0.00   0.0   0.087   0.000   72.3    55   55.2   72.0  10.10  .0740    0.000   212    5    100.0   10 
 9/24/17  3:50a   52.8   52.8   52.5    92   50.5   0.0   ---   0.00   0.0   ---   52.8   53.0   53.0   50.4  30.112  0.00  0.00     0     0.00      0     0.0  0.00   0.0   0.085   0.000   72.3    55   55.2   72.0  10.10  .0740    0.000   213    5    100.0   10 
 9/24/17  4:00a   53.2   53.2   52.8    92   50.9   0.0   ---   0.00   0.0   ---   53.2   53.4   53.4   50.8  30.113  0.00  0.00     0     0.00      0     0.0  0.00   0.0   0.082   0.000   72.3    55   55.2   72.0  10.10  .0740    0.000   209    5    100.0   10 
 9/24/17  4:10a   53.0   53.2   53.0    92   50.7   1.0     E   0.17   3.0     E   53.0   53.2   53.2   50.6  30.114  0.00  0.00     0     0.00      0     0.0  0.00   0.0   0.083   0.000   72.3    54   54.7   71.9   9.90  .0740    0.000   213    5    100.0   10 
 9/24/17  4:20a   52.9   53.1   52.9    92   50.6   2.0     E   0.33   4.0     E   52.9   53.1   53.1   50.5  30.111  0.00  0.00     0     0.00      0     0.0  0.00   0.0   0.084   0.000   72.2    54   54.6   71.7   9.91  .0740    0.000   213    5    100.0   10 
 9/24/17  4:30a   53.1   53.1   52.9    92   50.8   3.0     E   0.50   7.0     E   53.1   53.3   53.3   50.7  30.112  0.00  0.00     0     0.00      0     0.0  0.00   0.0   0.083   0.000   72.2    54   54.6   71.7   9.91  .0740    0.000   213    5    100.0   10 
 9/24/17  4:40a   53.2   53.2   53.1    92   50.9   2.0     E   0.33   4.0     E   53.2   53.4   53.4   50.8  30.118  0.00  0.00     0     0.00      0     0.0  0.00   0.0   0.082   0.000   72.2    54   54.6   71.7   9.91  .0740    0.000   214    5    100.0   10 
 9/24/17  4:50a   53.1   53.2   53.1    92   50.8   0.0   ENE   0.00   2.0   ENE   53.1   53.3   53.3   50.7  30.124  0.00  0.00     0     0.00      0     0.0  0.00   0.0   0.083   0.000   72.2    54   54.6   71.7   9.91  .0740    0.000   212    5    100.0   10 
 9/24/17  5:00a   52.9   53.2   52.9    92   50.6   0.0   ENE   0.00   2.0   ENE   52.9   53.1   53.1   50.5  30.123  0.00  0.00     0     0.00      0     0.0  0.00   0.0   0.084   0.000   72.2    54   54.6   71.7   9.91  .0740    0.000   210    5    100.0   10 
 9/24/17  5:10a   52.8   52.9   52.8    92   50.5   0.0   ---   0.00   0.0   ---   52.8   53.0   53.0   50.4  30.127  0.00  0.00     0     0.00      0     0.0  0.00   0.0   0.085   0.000   72.1    54   54.5   71.6   9.91  .0741    0.000   213    5    100.0   10 
 9/24/17  5:20a   52.6   52.8   52.6    92   50.3   0.0     E   0.00   2.0     E   52.6   52.8   52.8   50.2  30.121  0.00  0.00     0     0.00      0     0.0  0.00   0.0   0.086   0.000   72.1    54   54.5   71.6   9.91  .0741    0.000   212    5    100.0   10 
 9/24/17  5:30a   53.0   53.0   52.6    93   51.0   2.0     E   0.33   5.0     E   53.0   53.2   53.2   50.6  30.119  0.00  0.00     0     0.00      0     0.0  0.00   0.0   0.083   0.000   72.1    54   54.5   71.6   9.91  .0741    0.000   211    5    100.0   10 
 9/24/17  5:40a   53.1   53.2   53.0    92   50.8   3.0     E   0.50   8.0     E   53.1   53.3   53.3   50.7  30.115  0.00  0.00     0     0.00      0     0.0  0.00   0.0   0.083   0.000   72.0    54   54.4   71.4   9.91  .0741    0.000   213    5    100.0   10 
 9/24/17  5:50a   52.8   53.1   52.8    92   50.5   4.0     E   0.67   9.0     E   52.1   53.0   52.3   49.7  30.115  0.00  0.00     0     0.00      0     0.0  0.00   0.0   0.085   0.000   72.0    54   54.4   71.4   9.91  .0741    0.000   213    5    100.0   10 
 9/24/17  6:00a   52.8   52.8   52.8    92   50.5   3.0   ENE   0.50   8.0     E   52.8   53.0   53.0   50.4  30.123  0.00  0.00     0     0.00      0     0.0  0.00   0.0   0.085   0.000   72.0    54   54.4   71.4   9.91  .0741    0.000   211    5    100.0   10 
 9/24/17  6:10a   52.8   52.9   52.8    92   50.5   2.0   ENE   0.33   8.0   ENE   52.8   53.0   53.0   50.4  30.120  0.00  0.00     0     0.00      0     0.0  0.00   0.0   0.085   0.000   72.0    54   54.4   71.4   9.91  .0741    0.000   214    5    100.0   10 
 9/24/17  6:20a   52.9   52.9   52.8    92   50.6   2.0   ENE   0.33   5.0     E   52.9   53.1   53.1   50.5  30.118  0.00  0.00     0     0.00      0     0.0  0.00   0.0   0.084   0.000   71.9    54   54.3   71.3   9.91  .0741    0.000   211    5    100.0   10 
 9/24/17  6:30a   53.0   53.0   52.8    92   50.7   2.0     E   0.33   3.0    NE   53.0   53.2   53.2   50.6  30.119  0.00  0.00     0     0.00      0     0.0  0.00   0.0   0.083   0.000   71.9    54   54.3   71.3   9.91  .0741    0.000   212    5    100.0   10 
 9/24/17  6:40a   52.9   53.0   52.8    92   50.6   3.0   ESE   0.50   8.0     E   52.9   53.1   53.1   50.5  30.123  0.00  0.00     0     0.00      0     0.0  0.00   0.0   0.084   0.000   71.8    54   54.3   71.1   9.91  .0741    0.000   212    5    100.0   10 
 9/24/17  6:50a   53.1   53.1   52.8    92   50.8   3.0   ENE   0.50   9.0   ENE   53.1   53.3   53.3   50.7  30.120  0.00  0.00     0     0.00      0     0.0  0.00   0.0   0.083   0.000   71.8    54   54.3   71.1   9.91  .0741    0.000   213    5    100.0   10 
 9/24/17  7:00a   53.2   53.2   53.1    92   50.9   2.0     E   0.33   8.0   ENE   53.2   53.4   53.4   50.8  30.123  0.00  0.00     2     0.03      7     0.0  0.00   0.0   0.082   0.000   71.8    54   54.3   71.1   9.91  .0741    0.000   212    5    100.0   10 
 9/24/17  7:10a   53.2   53.3   53.2    92   50.9   2.0   ENE   0.33   7.0    NE   53.2   53.4   53.4   51.1  30.132  0.00  0.00    12     0.17     16     0.0  0.00   0.0   0.082   0.000   71.8    54   54.3   71.1   9.91  .0741    0.000   211    5    100.0   10 
 9/24/17  7:20a   52.8   53.2   52.8    92   50.5   2.0     N   0.33   6.0   NNE   52.8   53.0   53.0   51.0  30.134  0.00  0.00    25     0.36     35     0.0  0.00   0.0   0.085   0.000   71.8    54   54.3   71.1   9.91  .0741    0.000   213    5    100.0   10 
 9/24/17  7:30a   53.0   53.0   52.7    92   50.7   1.0   ENE   0.17   4.0   ENE   53.0   53.2   53.2   51.8  30.134  0.00  0.00    50     0.72     60     0.0  0.00   0.0   0.083   0.000   71.7    54   54.2   71.0   9.92  .0742    0.000   211    5    100.0   10 
 9/24/17  7:40a   53.6   53.6   53.0    92   51.3   1.0   WNW   0.17   3.0    SW   53.6   53.8   53.8   52.7  30.144  0.00  0.00    63     0.90     63     0.0  0.00   0.0   0.079   0.000   71.7    54   54.2   71.0   9.92  .0742    0.000   213    5    100.0   10 
 9/24/17  7:50a   53.7   53.7   53.6    92   51.4   0.0     N   0.00   2.0    NW   53.7   53.9   53.9   54.8  30.150  0.00  0.00    63     0.90     67     0.0  0.00   0.0   0.078   0.000   71.7    54   54.2   71.0   9.92  .0742    0.000   213    5    100.0   10 
 9/24/17  8:00a   53.8   53.8   53.7    92   51.5   0.0     N   0.00   2.0     N   53.8   53.9   53.9   55.1  30.149  0.00  0.00    69     0.99     70     0.0  0.00   0.0   0.078   0.000   71.7    54   54.2   71.0   9.92  .0742    0.001   211    5    100.0   10 
 9/24/17  8:10a   53.8   53.9   53.8    92   51.5   0.0   ---   0.00   0.0   ---   53.8   53.9   53.9   55.7  30.145  0.00  0.00    83     1.19     91     0.0  0.00   0.0   0.078   0.000   71.7    54   54.2   71.0   9.92  .0742    0.000   213    5    100.0   10 
 9/24/17  8:20a   53.9   53.9   53.8    92   51.6   0.0   ---   0.00   0.0   ---   53.9   54.0   54.0   55.3  30.147  0.00  0.00    72     1.03     81     0.0  0.00   0.0   0.077   0.000   71.7    54   54.2   71.0   9.92  .0742    0.000   212    5    100.0   10 
 9/24/17  8:30a   54.0   54.0   53.9    92   51.7   0.0     N   0.00   1.0     N   54.0   54.1   54.1   55.4  30.145  0.00  0.00    76     1.09     86     0.0  0.00   0.0   0.076   0.000   71.7    54   54.2   71.0   9.92  .0742    0.000   211    5    100.0   10 
 9/24/17  8:40a   54.1   54.1   54.0    92   51.8   1.0     N   0.17   3.0   WNW   54.1   54.2   54.2   55.5  30.146  0.00  0.00    78     1.12     97     0.0  0.00   0.0   0.076   0.000   71.7    54   54.2   71.0   9.92  .0742    0.000   211    5    100.0   10 
 9/24/17  8:50a   54.0   54.1   53.9    92   51.7   1.0    NW   0.17   3.0    NW   54.0   54.1   54.1   56.3  30.149  0.00  0.00   103     1.48    128     0.0  0.00   0.0   0.076   0.000   71.7    54   54.2   71.0   9.92  .0742    0.000   213    5    100.0   10 
 9/24/17  9:00a   54.5   54.5   54.0    92   52.2   1.0   ENE   0.17   4.0   ENE   54.5   54.6   54.6   57.7  30.151  0.00  0.00   130     1.86    227     0.0  0.00   0.0   0.073   0.000   71.8    54   54.3   71.1   9.91  .0742    0.002   214    5    100.0   10 
 9/24/17  9:10a   55.3   55.3   54.5    92   53.0   3.0   ENE   0.50   6.0    NE   55.3   55.4   55.4   62.8  30.144  0.00  0.00   274     3.93    287     0.0  0.00   0.0   0.067   0.000   71.7    54   54.2   71.0   9.92  .0742    0.000   213    5    100.0   10 
 9/24/17  9:20a   55.7   55.8   55.3    90   52.8   4.0   ENE   0.67   8.0   ENE   55.4   55.8   55.5   63.0  30.148  0.00  0.00   287     4.11    315     0.0  0.00   0.0   0.065   0.000   71.8    54   54.3   71.1   9.91  .0742    0.000   213    5    100.0   10 
 9/24/17  9:30a   56.9   56.9   55.7    90   54.0   2.0   ENE   0.33   8.0     E   56.9   57.0   57.0   65.2  30.144  0.00  0.00   324     4.64    338     0.0  0.00   0.0   0.056   0.000   71.8    54   54.3   71.1   9.91  .0742    0.000   213    5    100.0   10 
 9/24/17  9:40a   57.8   57.8   56.9    89   54.6   1.0   ESE   0.17   6.0   ESE   57.8   57.9   57.9   66.8  30.138  0.00  0.00   362     5.19    374     0.0  0.00   0.0   0.050   0.000   71.8    54   54.3   71.1   9.91  .0742    0.000   212    5    100.0   10 
 9/24/17  9:50a   58.7   58.7   57.9    87   54.8   2.0   ESE   0.33   7.0    SW   58.7   58.8   58.8   67.9  30.136  0.00  0.00   382     5.48    417     0.0  0.00   0.0   0.044   0.000   71.8    54   54.3   71.1   9.91  .0742    0.000   213    5    100.0   10 
 9/24/17 10:00a   59.8   59.8   58.7    85   55.3   4.0     E   0.67   9.0     E   59.8   59.9   59.9   69.3  30.137  0.00  0.00   410     5.88    432     0.0  0.00   0.0   0.036   0.000   71.9    54   54.3   71.3   9.91  .0741    0.007   212    5    100.0   10 
 9/24/17 10:10a   60.0   60.3   59.8    83   54.8   2.0     E   0.33   7.0     E   60.0   60.0   60.0   69.4  30.143  0.00  0.00   422     6.05    461     0.0  0.00   0.0   0.035   0.000   71.9    54   54.3   71.3   9.91  .0741    0.000   211    5    100.0   10 
 9/24/17 10:20a   57.9   60.0   57.9    84   53.1   2.0     S   0.33   5.0     S   57.9   57.8   57.8   67.2  30.143  0.00  0.00   435     6.24    464     0.0  0.00   0.0   0.049   0.000   71.9    54   54.3   71.3   9.91  .0741    0.000   213    5    100.0   10 
 9/24/17 10:30a   56.8   57.9   56.8    87   53.0   3.0   SSW   0.50   5.0   SSW   56.8   56.8   56.8   66.4  30.145  0.00  0.00   460     6.59    478     0.0  0.00   0.0   0.057   0.000   72.0    54   54.4   71.4   9.91  .0741    0.000   211    5    100.0   10 
 9/24/17 10:40a   56.2   56.8   56.1    88   52.7   3.0    SW   0.50   4.0   SSW   56.2   56.2   56.2   65.5  30.145  0.00  0.00   449     6.44    469     0.0  0.00   0.0   0.061   0.000   71.8    54   54.3   71.1   9.91  .0742    0.000   213    5    100.0   10 
 9/24/17 10:50a   56.0   56.2   56.0    89   52.8   2.0     W   0.33   4.0   WSW   56.0   56.1   56.1   65.7  30.145  0.00  0.00   478     6.85    503     0.0  0.00   0.0   0.063   0.000   71.5    54   54.0   70.7   9.92  .0742    0.000   211    5    100.0   10 
 9/24/17 11:00a   56.3   56.3   56.0    89   53.1   2.0   WNW   0.33   3.0   WNW   56.3   56.4   56.4   66.3  30.145  0.00  0.00   511     7.33    534     0.0  0.00   0.0   0.060   0.000   71.5    54   54.0   70.7   9.92  .0742    0.009   213    5    100.0   10 
 9/24/17 11:10a   57.3   57.3   56.3    90   54.4   2.0    NW   0.33   4.0     N   57.3   57.4   57.4   67.7  30.148  0.00  0.00   550     7.88    566     0.0  0.00   0.0   0.053   0.000   71.5    54   54.0   70.7   9.92  .0742    0.000   211    5    100.0   10 
 9/24/17 11:20a   57.9   57.9   57.3    89   54.7   3.0     N   0.50   5.0   NNE   57.9   58.0   58.0   68.4  30.145  0.00  0.00   564     8.09    570     0.0  0.00   0.0   0.049   0.000   71.2    54   53.7   70.2   9.93  .0743    0.000   213    5    100.0   10 
 9/24/17 11:30a   58.1   58.1   57.9    88   54.6   3.0     N   0.50   4.0   NNE   58.1   58.1   58.1   68.5  30.141  0.00  0.00   570     8.17    580     0.0  0.00   0.0   0.048   0.000   70.9    54   53.4   69.8   9.93  .0743    0.000   214    5    100.0   10 
 9/24/17 11:40a   57.9   58.3   57.9    88   54.4   3.0     N   0.50   5.0   NNE   57.9   57.9   57.9   68.4  30.144  0.00  0.00   595     8.53    605     0.0  0.00   0.0   0.049   0.000   70.7    55   53.7   69.6  10.14  .0743    0.000   212    5    100.0   10 
 9/24/17 11:50a   58.4   58.4   57.9    89   55.2   3.0   NNE   0.50   6.0    NE   58.4   58.5   58.5   69.1  30.143  0.00  0.00   605     8.67    608     0.0  0.00   0.0   0.046   0.000   70.5    55   53.6   69.3  10.14  .0744    0.000   211    5    100.0   10 
 9/24/17 12:00p   59.5   59.5   58.5    88   55.9   4.0   NNE   0.67   6.0   ENE   59.5   59.7   59.7   70.4  30.141  0.00  0.00   618     8.86    626     0.0  0.00   0.0   0.038   0.000   69.7    56   53.3   68.6  10.36  .0745    0.012   210    5    100.0   10 
 9/24/17 12:10p   59.7   60.0   59.6    86   55.5   4.0     N   0.67   9.0     N   59.7   59.8   59.8   70.5  30.141  0.00  0.00   630     9.03    635     0.0  0.00   0.0   0.037   0.000   69.8    56   53.4   68.7  10.35  .0745    0.000   211    5    100.0   10 
 9/24/17 12:20p   59.6   59.8   59.4    86   55.4   5.0     N   0.83   9.0   NNE   59.5   59.7   59.6   70.4  30.142  0.00  0.00   644     9.23    661     0.0  0.00   0.0   0.038   0.000   70.2    55   53.3   69.0  10.15  .0744    0.000   211    5    100.0   10 
 9/24/17 12:30p   59.8   59.8   59.4    87   55.9   5.0     N   0.83   8.0   NNE   59.8   60.0   60.0   70.5  30.145  0.00  0.00   612     8.77    638     0.0  0.00   0.0   0.036   0.000   70.6    55   53.6   69.5  10.14  .0744    0.000   212    5    100.0   10 
 9/24/17 12:40p   60.6   60.6   59.9    86   56.4   5.0    NE   0.83   9.0   NNE   60.6   60.8   60.8   71.1  30.146  0.00  0.00   589     8.44    613     0.0  0.00   0.0   0.031   0.000   71.0    55   54.0   70.0  10.13  .0743    0.000   212    5    100.0   10 
 9/24/17 12:50p   61.1   61.1   60.6    85   56.6   7.0    NE   1.17  10.0    NE   60.5   61.3   60.7   70.6  30.145  0.00  0.00   572     8.20    598     0.0  0.00   0.0   0.027   0.000   71.2    55   54.2   70.3  10.13  .0743    0.000   213    5    100.0   10 
 9/24/17  1:00p   61.2   61.3   61.0    84   56.3   7.0    NE   1.17  10.0    NE   60.7   61.4   60.9   70.3  30.143  0.00  0.00   531     7.61    563     0.0  0.00   0.0   0.026   0.000   71.4    55   54.4   70.6  10.12  .0742    0.013   213    5    100.0   10 
 9/24/17  1:10p   61.2   61.2   61.1    85   56.7   7.0    NE   1.17  10.0   ENE   60.7   61.4   60.9   70.9  30.144  0.00  0.00   582     8.34    598     0.0  0.00   0.0   0.026   0.000   71.6    55   54.6   70.9  10.12  .0742    0.000   213    5    100.0   10 
 9/24/17  1:20p   61.2   61.3   61.1    84   56.3   8.0    NE   1.33  11.0   NNE   59.9   61.4   60.1   69.4  30.147  0.00  0.00   560     8.03    589     0.0  0.00   0.0   0.026   0.000   71.8    55   54.8   71.2  10.11  .0742    0.000   212    5    100.0   10 
 9/24/17  1:30p   61.5   61.5   61.1    84   56.6   8.0    NE   1.33  11.0    NE   60.3   61.7   60.5   69.9  30.144  0.00  0.00   567     8.13    591     0.0  0.00   0.0   0.024   0.000   72.0    55   54.9   71.5  10.11  .0741    0.000   212    5    100.0   10 
 9/24/17  1:40p   61.9   61.9   61.5    84   57.0   7.0    NE   1.17  11.0   NNE   61.6   62.2   61.9   71.6  30.142  0.00  0.00   549     7.87    563     0.0  0.00   0.0   0.022   0.000   72.2    55   55.1   71.8  10.11  .0741    0.000   211    5    100.0   10 
 9/24/17  1:50p   61.9   62.0   61.8    84   57.0   7.0    NE   1.17  12.0    NE   61.6   62.2   61.9   71.5  30.138  0.00  0.00   544     7.80    571     0.0  0.00   0.0   0.022   0.000   72.3    55   55.2   72.0  10.10  .0740    0.000   213    5    100.0   10 
 9/24/17  2:00p   62.4   62.4   61.9    84   57.5   6.0   ENE   1.00  11.0   ENE   62.4   62.8   62.8   72.3  30.137  0.00  0.00   515     7.38    540     0.0  0.00   0.0   0.018   0.000   72.4    55   55.3   72.1  10.10  .0740    0.012   209    5    100.0   10 
 9/24/17  2:10p   61.9   62.4   61.9    84   57.0   8.0   NNE   1.33  13.0     N   60.8   62.2   61.1   70.0  30.138  0.00  0.00   519     7.44    533     0.0  0.00   0.0   0.022   0.000   72.4    55   55.3   72.1  10.10  .0740    0.000   213    5    100.0   10 
 9/24/17  2:20p   62.0   62.2   61.9    84   57.1   7.0    NE   1.17  13.0   NNE   61.7   62.3   62.0   71.4  30.137  0.00  0.00   518     7.43    548     0.0  0.00   0.0   0.021   0.000   72.5    55   55.4   72.3  10.10  .0740    0.000   213    5    100.0   10 
 9/24/17  2:30p   62.6   62.7   62.0    84   57.7   6.0    NE   1.00  11.0   NNE   62.6   63.0   63.0   72.8  30.139  0.00  0.00   531     7.61    548     0.0  0.00   0.0   0.017   0.000   72.6    55   55.5   72.4  10.10  .0740    0.000   213    5    100.0   10 
 9/24/17  2:40p   62.4   62.6   62.4    84   57.5   8.0    NE   1.33  13.0   ENE   61.4   62.8   61.8   70.7  30.138  0.00  0.00   507     7.27    536     0.0  0.00   0.0   0.018   0.000   72.7    55   55.6   72.5  10.10  .0740    0.000   210    5    100.0   10 
 9/24/17  2:50p   62.6   62.6   62.3    84   57.7   8.0   ENE   1.33  14.0   NNE   61.6   63.0   62.0   71.5  30.136  0.00  0.00   546     7.83    580     0.0  0.00   0.0   0.017   0.000   72.9    55   55.8   72.9  10.09  .0739    0.000   210    5    100.0   10 
 9/24/17  3:00p   63.4   63.4   62.7    84   58.5   7.0   ENE   1.17  14.0    NE   63.3   63.9   63.8   73.9  30.135  0.00  0.00   547     7.84    582     0.0  0.00   0.0   0.011   0.000   73.0    55   55.9   73.0  10.09  .0739    0.012   214    5    100.0   10 
 9/24/17  3:10p   63.4   63.6   63.4    82   57.8   8.0   ENE   1.33  15.0    NE   62.5   63.8   62.9   72.3  30.133  0.00  0.00   522     7.48    547     0.0  0.00   0.0   0.011   0.000   73.1    55   56.0   73.1  10.09  .0739    0.000   210    5    100.0   10 
 9/24/17  3:20p   63.1   63.5   63.1    83   57.9   8.0    NE   1.33  15.0    NE   62.2   63.5   62.6   71.0  30.131  0.00  0.00   450     6.45    513     0.0  0.00   0.0   0.013   0.000   73.3    55   56.2   73.4  10.08  .0739    0.000   211    5    100.0   10 
 9/24/17  3:30p   62.7   63.1   62.7    83   57.5   9.0    NE   1.50  14.0    NE   60.8   63.1   61.2   69.6  30.129  0.00  0.00   461     6.61    475     0.0  0.00   0.0   0.016   0.000   73.4    55   56.2   73.5  10.08  .0738    0.000   213    5    100.0   10 
 9/24/17  3:40p   63.0   63.0   62.7    83   57.8   8.0   ENE   1.33  14.0   NNE   62.1   63.4   62.5   70.7  30.126  0.00  0.00   417     5.98    434     0.0  0.00   0.0   0.014   0.000   73.5    55   56.3   73.6  10.08  .0738    0.000   212    5    100.0   10 
 9/24/17  3:50p   62.8   63.1   62.8    82   57.2   8.0    NE   1.33  13.0    NE   61.9   63.2   62.3   70.6  30.128  0.00  0.00   422     6.05    450     0.0  0.00   0.0   0.015   0.000   73.5    55   56.3   73.6  10.08  .0738    0.000   212    5    100.0   10 
 9/24/17  4:00p   63.0   63.1   62.8    83   57.8   6.0    NE   1.00  12.0   NNE   63.0   63.4   63.4   72.8  30.132  0.00  0.00   439     6.29    489     0.0  0.00   0.0   0.014   0.000   73.6    55   56.4   73.7  10.08  .0738    0.011   213    5    100.0   10 
 9/24/17  4:10p   63.0   63.1   63.0    82   57.4   7.0   NNE   1.17  12.0   NNE   62.9   63.4   63.3   73.0  30.133  0.00  0.00   458     6.57    476     0.0  0.00   0.0   0.014   0.000   73.7    55   56.5   73.8  10.08  .0738    0.000   212    5    100.0   10 
 9/24/17  4:20p   62.9   63.0   62.9    82   57.3   7.0    NE   1.17  12.0    NE   62.8   63.3   63.2   72.7  30.132  0.00  0.00   435     6.24    499     0.0  0.00   0.0   0.015   0.000   73.8    55   56.6   74.0  10.07  .0738    0.000   211    5    100.0   10 
 9/24/17  4:30p   62.8   62.9   62.7    82   57.2   8.0    NE   1.33  13.0   ENE   61.9   63.2   62.3   71.4  30.130  0.00  0.00   425     6.09    448     0.0  0.00   0.0   0.015   0.000   73.9    55   56.7   74.1  10.07  .0737    0.000   213    5    100.0   10 
 9/24/17  4:40p   62.8   62.8   62.5    83   57.6   7.0    NE   1.17  13.0    NE   62.7   63.2   63.1   72.1  30.129  0.00  0.00   390     5.59    408     0.0  0.00   0.0   0.015   0.000   74.0    55   56.8   74.2  10.07  .0737    0.000   213    5    100.0   10 
 9/24/17  4:50p   62.6   63.2   62.6    82   57.0   8.0    NE   1.33  13.0    NE   61.6   62.9   61.9   68.6  30.128  0.00  0.00   287     4.11    381     0.0  0.00   0.0   0.017   0.000   74.0    55   56.8   74.2  10.07  .0737    0.000   212    5    100.0   10 
 9/24/17  5:00p   61.3   62.6   61.3    83   56.1   8.0   NNE   1.33  15.0    NE   60.1   61.5   60.3   63.3  30.131  0.00  0.00   147     2.11    207     0.0  0.00   0.0   0.026   0.000   74.2    55   57.0   74.5  10.07  .0737    0.009   209    5    100.0   10 
 9/24/17  5:10p   60.7   61.3   60.6    86   56.5   8.0    NE   1.33  12.0   NNE   59.3   60.9   59.5   63.1  30.126  0.00  0.00   159     2.28    253     0.0  0.00   0.0   0.030   0.000   74.2    55   57.0   74.5  10.07  .0737    0.000   209    5    100.0   10 
 9/24/17  5:20p   60.6   60.7   60.6    86   56.4   7.0    NE   1.17  13.0    NE   59.9   60.8   60.1   64.8  30.128  0.00  0.00   187     2.68    223     0.0  0.00   0.0   0.031   0.000   74.3    55   57.1   74.6  10.06  .0737    0.000   212    5    100.0   10 
 9/24/17  5:30p   60.4   60.6   60.4    87   56.5   7.0    NE   1.17  12.0    NE   59.7   60.6   59.9   63.6  30.126  0.00  0.00   149     2.14    169     0.0  0.00   0.0   0.032   0.000   74.2    55   57.0   74.5  10.07  .0737    0.000   205    5     99.0   10 
 9/24/17  5:40p   60.6   60.6   60.4    87   56.7   8.0    NE   1.33  15.0     E   59.2   60.8   59.4   63.4  30.123  0.00  0.00   156     2.24    158     0.0  0.00   0.0   0.031   0.000   74.2    55   57.0   74.5  10.07  .0737    0.000   212    5    100.0   10 
 9/24/17  5:50p   60.5   60.7   60.5    87   56.6   8.0    NE   1.33  16.0    NE   59.1   60.7   59.3   62.9  30.120  0.00  0.00   140     2.01    158     0.0  0.00   0.0   0.031   0.000   74.2    55   57.0   74.5  10.07  .0737    0.000   213    5    100.0   10 
 9/24/17  6:00p   60.4   60.5   60.4    88   56.8   8.0    NE   1.33  15.0   NNE   59.0   60.7   59.3   61.6  30.119  0.00  0.00   100     1.43    130     0.0  0.00   0.0   0.032   0.000   74.1    55   56.9   74.3  10.07  .0737    0.004   212    5    100.0   10 
 9/24/17  6:10p   59.9   60.4   59.9    88   56.3   7.0    NE   1.17  12.0    NE   59.1   60.1   59.3   60.6  30.120  0.00  0.00    69     0.99     83     0.0  0.00   0.0   0.035   0.000   74.1    55   56.9   74.3  10.07  .0737    0.000   210    5    100.0   10 
 9/24/17  6:20p   59.5   59.8   59.5    89   56.3   7.0   ENE   1.17  13.0   ENE   58.6   59.7   58.8   59.4  30.124  0.00  0.00    51     0.73     54     0.0  0.00   0.0   0.038   0.000   74.1    55   56.9   74.3  10.07  .0737    0.000   211    5    100.0   10 
 9/24/17  6:30p   59.2   59.5   59.2    89   56.0   7.0   ENE   1.17  12.0   ENE   58.2   59.4   58.4   58.6  30.121  0.00  0.00    43     0.62     53     0.0  0.00   0.0   0.040   0.000   74.0    55   56.8   74.2  10.07  .0737    0.000   209    5    100.0   10 
 9/24/17  6:40p   59.0   59.2   59.0    90   56.1   5.0    NE   0.83  10.0    NE   58.8   59.2   59.0   58.8  30.121  0.00  0.00    33     0.47     35     0.0  0.00   0.0   0.042   0.000   74.0    55   56.8   74.2  10.07  .0737    0.000   209    5    100.0   10 
 9/24/17  6:50p   58.5   59.0   58.5    90   55.6   7.0    NE   1.17  13.0     N   57.4   58.7   57.6   55.8  30.127  0.00  0.00    21     0.30     26     0.0  0.00   0.0   0.045   0.000   74.0    55   56.8   74.2  10.07  .0737    0.000   213    5    100.0   10 
 9/24/17  7:00p   58.3   58.5   58.3    91   55.7   7.0   ENE   1.17  13.0   ENE   57.2   58.5   57.4   55.4  30.126  0.00  0.00    12     0.17     14     0.0  0.00   0.0   0.047   0.000   74.0    55   56.8   74.2  10.07  .0737    0.001   210    5    100.0   10 
 9/24/17  7:10p   58.0   58.3   58.0    91   55.4   5.0   ENE   0.83  10.0    NE   57.6   58.1   57.7   55.4  30.125  0.00  0.00     3     0.04      9     0.0  0.00   0.0   0.049   0.000   74.1    55   56.9   74.3  10.07  .0737    0.000   213    5    100.0   10 
 9/24/17  7:20p   57.7   58.0   57.7    91   55.1   4.0   ENE   0.67   9.0   ENE   57.7   57.8   57.8   55.5  30.126  0.00  0.00     0     0.00      0     0.0  0.00   0.0   0.051   0.000   74.2    55   57.0   74.5  10.07  .0737    0.000   212    5    100.0   10 
 9/24/17  7:30p   57.5   57.7   57.5    92   55.2   4.0   ENE   0.67   9.0   ENE   57.5   57.7   57.7   55.4  30.127  0.00  0.00     0     0.00      0     0.0  0.00   0.0   0.052   0.000   74.3    55   57.1   74.6  10.06  .0737    0.000   213    5    100.0   10 
 9/24/17  7:40p   57.3   57.5   57.3    92   55.0   4.0   ENE   0.67   7.0     E   57.3   57.5   57.5   55.1  30.132  0.00  0.00     0     0.00      0     0.0  0.00   0.0   0.053   0.000   74.3    55   57.1   74.6  10.06  .0737    0.000   210    5    100.0   10 
 9/24/17  7:50p   57.2   57.3   57.2    92   54.9   5.0   ENE   0.83   9.0   ENE   56.6   57.3   56.7   54.3  30.130  0.00  0.00     0     0.00      0     0.0  0.00   0.0   0.054   0.000   74.5    55   57.3   74.8  10.06  .0736    0.000   213    5    100.0   10 
 9/24/17  8:00p   57.1   57.3   57.1    92   54.8   3.0   ENE   0.50   6.0   ENE   57.1   57.2   57.2   54.8  30.133  0.00  0.00     0     0.00      0     0.0  0.00   0.0   0.055   0.000   74.6    55   57.4   75.0  10.06  .0736    0.000   213    5    100.0   10 
 9/24/17  8:10p   56.9   57.1   56.9    92   54.6   2.0   ENE   0.33   4.0    NE   56.9   57.0   57.0   54.6  30.136  0.00  0.00     0     0.00      0     0.0  0.00   0.0   0.056   0.000   74.6    55   57.4   75.0  10.06  .0736    0.000   213    5    100.0   10 
 9/24/17  8:20p   56.7   56.9   56.7    92   54.4   2.0   ENE   0.33   4.0   ENE   56.7   56.8   56.8   54.4  30.135  0.00  0.00     0     0.00      0     0.0  0.00   0.0   0.058   0.000   74.7    55   57.5   75.1  10.06  .0736    0.000   211    5    100.0   10 
 9/24/17  8:30p   56.4   56.7   56.4    92   54.1   2.0   ENE   0.33   3.0   ENE   56.4   56.5   56.5   54.1  30.141  0.00  0.00     0     0.00      0     0.0  0.00   0.0   0.060   0.000   74.7    55   57.5   75.1  10.06  .0736    0.000   213    5    100.0   10 
 9/24/17  8:40p   56.2   56.4   56.2    93   54.2   2.0   ENE   0.33   5.0   NNE   56.2   56.4   56.4   54.0  30.139  0.00  0.00     0     0.00      0     0.0  0.00   0.0   0.061   0.000   74.7    55   57.5   75.1  10.06  .0736    0.000   212    5    100.0   10 
 9/24/17  8:50p   56.2   56.2   56.2    93   54.2   3.0   ENE   0.50   6.0    NE   56.2   56.4   56.4   54.0  30.143  0.00  0.00     0     0.00      0     0.0  0.00   0.0   0.061   0.000   74.7    55   57.5   75.1  10.06  .0736    0.000   212    5    100.0   10 
 9/24/17  9:00p   56.3   56.3   56.2    93   54.3   3.0   ENE   0.50   8.0   ENE   56.3   56.5   56.5   54.1  30.145  0.00  0.00     0     0.00      0     0.0  0.00   0.0   0.060   0.000   74.7    54   56.9   75.0   9.86  .0737    0.000   213    5    100.0   10 
 9/24/17  9:10p   56.4   56.4   56.3    93   54.4   4.0   ENE   0.67  10.0     E   56.3   56.6   56.5   54.1  30.147  0.00  0.00     0     0.00      0     0.0  0.00   0.0   0.060   0.000   74.6    54   56.9   74.9   9.86  .0737    0.000   210    5    100.0   10 
 9/24/17  9:20p   56.8   56.8   56.4    93   54.8   6.0   ENE   1.00  13.0   ENE   55.8   57.0   56.0   53.6  30.152  0.00  0.00     0     0.00      0     0.0  0.00   0.0   0.057   0.000   74.6    54   56.9   74.9   9.86  .0737    0.000   213    5    100.0   10 
 9/24/17  9:30p   56.9   56.9   56.8    93   54.9   5.0   ENE   0.83  11.0   ENE   56.3   57.1   56.5   54.1  30.151  0.00  0.00     0     0.00      0     0.0  0.00   0.0   0.056   0.000   74.6    54   56.9   74.9   9.86  .0737    0.000   212    5    100.0   10 
 9/24/17  9:40p   56.9   57.0   56.9    93   54.9   5.0   ENE   0.83  12.0   ENE   56.3   57.1   56.5   54.1  30.147  0.00  0.00     0     0.00      0     0.0  0.00   0.0   0.056   0.000   74.6    54   56.9   74.9   9.86  .0737    0.000   211    5    100.0   10 
 9/24/17  9:50p   56.7   56.9   56.7    93   54.7   6.0   ENE   1.00  14.0   ENE   55.6   56.9   55.8   53.4  30.144  0.00  0.00     0     0.00      0     0.0  0.00   0.0   0.058   0.000   74.6    54   56.9   74.9   9.86  .0737    0.000   212    5    100.0   10 
 9/24/17 10:00p   56.6   56.7   56.6    93   54.6   4.0   ENE   0.67   9.0   ENE   56.5   56.8   56.7   54.3  30.143  0.00  0.00     0     0.00      0     0.0  0.00   0.0   0.058   0.000   74.5    54   56.8   74.8   9.86  .0737    0.000   212    5    100.0   10 
 9/24/17 10:10p   56.4   56.6   56.4    93   54.4   3.0   ENE   0.50  10.0   ENE   56.4   56.6   56.6   54.2  30.146  0.00  0.00     0     0.00      0     0.0  0.00   0.0   0.060   0.000   74.5    54   56.8   74.8   9.86  .0737    0.000   213    5    100.0   10 
 9/24/17 10:20p   56.3   56.5   56.3    93   54.3   2.0   ENE   0.33   5.0     E   56.3   56.5   56.5   54.1  30.148  0.00  0.00     0     0.00      0     0.0  0.00   0.0   0.060   0.000   74.5    54   56.8   74.8   9.86  .0737    0.000   213    5    100.0   10 
 9/24/17 10:30p   56.3   56.3   56.2    92   54.0   3.0   ENE   0.50   9.0    NE   56.3   56.4   56.4   54.0  30.148  0.00  0.00     0     0.00      0     0.0  0.00   0.0   0.060   0.000   74.5    54   56.8   74.8   9.86  .0737    0.000   211    5    100.0   10 
 9/24/17 10:40p   56.3   56.3   56.2    93   54.3   3.0   ENE   0.50  10.0   ENE   56.3   56.5   56.5   54.1  30.147  0.00  0.00     0     0.00      0     0.0  0.00   0.0   0.060   0.000   74.4    54   56.7   74.6   9.86  .0737    0.000   209    5    100.0   10 
 9/24/17 10:50p   56.3   56.4   56.3    92   54.0   2.0   ENE   0.33   5.0   ENE   56.3   56.4   56.4   54.0  30.148  0.00  0.00     0     0.00      0     0.0  0.00   0.0   0.060   0.000   74.4    54   56.7   74.6   9.86  .0737    0.000   212    5    100.0   10 
 9/24/17 11:00p   56.3   56.4   56.3    93   54.3   2.0   ENE   0.33   7.0     E   56.3   56.5   56.5   54.1  30.147  0.00  0.00     0     0.00      0     0.0  0.00   0.0   0.060   0.000   74.4    54   56.7   74.6   9.86  .0737    0.000   211    5    100.0   10 
 9/24/17 11:10p   56.3   56.4   56.3    92   54.0   2.0   ENE   0.33   4.0     E   56.3   56.4   56.4   54.0  30.148  0.00  0.00     0     0.00      0     0.0  0.00   0.0   0.060   0.000   74.4    54   56.7   74.6   9.86  .0737    0.000   211    5    100.0   10 
 9/24/17 11:20p   56.1   56.4   56.1    92   53.8   1.0   ENE   0.17   3.0   ENE   56.1   56.2   56.2   53.8  30.147  0.00  0.00     0     0.00      0     0.0  0.00   0.0   0.062   0.000   74.3    54   56.6   74.5   9.86  .0737    0.000   212    5    100.0   10 
 9/24/17 11:30p   55.7   56.1   55.7    92   53.4   1.0     E   0.17   3.0   ENE   55.7   55.8   55.8   53.4  30.142  0.00  0.00     0     0.00      0     0.0  0.00   0.0   0.065   0.000   74.3    54   56.6   74.5   9.86  .0737    0.000   213    5    100.0   10 
 9/24/17 11:40p   55.5   55.7   55.5    92   53.2   0.0     E   0.00   1.0     E   55.5   55.6   55.6   53.2  30.138  0.00  0.00     0     0.00      0     0.0  0.00   0.0   0.066   0.000   74.2    54   56.5   74.4   9.87  .0737    0.000   209    5    100.0   10 
 9/24/17 11:50p   55.4   55.6   55.4    92   53.1   0.0     E   0.00   1.0     E   55.4   55.5   55.5   53.1  30.138  0.00  0.00     0     0.00      0     0.0  0.00   0.0   0.067   0.000   74.2    54   56.5   74.4   9.87  .0737    0.000   212    5    100.0   10 
 9/25/17 12:00a   55.3   55.4   55.3    92   53.0   0.0     N   0.00   2.0     E   55.3   55.4   55.4   53.0  30.139  0.00  0.00     0     0.00      0     0.0  0.00   0.0   0.067   0.000   74.2    54   56.5   74.4   9.87  .0737    0.000   212    5    100.0   10 
 9/25/17 12:10a   55.1   55.3   55.1    92   52.8   0.0    NE   0.00   2.0     N   55.1   55.2   55.2   52.7  30.137  0.00  0.00     0     0.00      0     0.0  0.00   0.0   0.069   0.000   74.1    54   56.4   74.2   9.87  .0737    0.000   210    5    100.0   10 
 9/25/17 12:20a   55.1   55.1   55.0    92   52.8   0.0    NE   0.00   1.0    NE   55.1   55.2   55.2   52.7  30.133  0.00  0.00     0     0.00      0     0.0  0.00   0.0   0.069   0.000   74.1    54   56.4   74.2   9.87  .0737    0.000   211    5    100.0   10 
 9/25/17 12:30a   55.0   55.1   55.0    92   52.7   0.0   ---   0.00   0.0   ---   55.0   55.1   55.1   52.6  30.136  0.00  0.00     0     0.00      0     0.0  0.00   0.0   0.069   0.000   74.1    54   56.4   74.2   9.87  .0737    0.000   212    5    100.0   10 
 9/25/17 12:40a   54.4   55.0   54.4    91   51.8   1.0     E   0.17   3.0     E   54.4   54.5   54.5   52.0  30.131  0.00  0.00     0     0.00      0     0.0  0.00   0.0   0.074   0.000   74.1    54   56.4   74.2   9.87  .0737    0.000   213    5    100.0   10 
 9/25/17 12:50a   54.7   54.7   54.4    92   52.4   0.0     E   0.00   1.0     E   54.7   54.8   54.8   52.3  30.126  0.00  0.00     0     0.00      0     0.0  0.00   0.0   0.072   0.000   74.0    54   56.3   74.1   9.87  .0737    0.000   210    5    100.0   10 
 9/25/17  1:00a   54.7   54.7   54.6    92   52.4   0.0     E   0.00   3.0   ENE   54.7   54.8   54.8   52.3  30.123  0.00  0.00     0     0.00      0     0.0  0.00   0.0   0.072   0.000   74.0    54   56.3   74.1   9.87  .0737    0.000   211    5    100.0   10 
 9/25/17  1:10a   55.1   55.1   54.7    91   52.5   0.0   ENE   0.00   2.0   ENE   55.1   55.2   55.2   52.7  30.121  0.00  0.00     0     0.00      0     0.0  0.00   0.0   0.069   0.000   74.0    54   56.3   74.1   9.87  .0737    0.000   214    5    100.0   10 
 9/25/17  1:20a   55.5   55.5   55.0    92   53.2   1.0   ENE   0.17   2.0   ENE   55.5   55.6   55.6   53.2  30.123  0.00  0.00     0     0.00      0     0.0  0.00   0.0   0.066   0.000   74.0    54   56.3   74.1   9.87  .0737    0.000   212    5    100.0   10 
 9/25/17  1:30a   55.5   55.5   55.5    91   52.9   0.0   NNE   0.00   1.0   NNE   55.5   55.6   55.6   53.1  30.119  0.00  0.00     0     0.00      0     0.0  0.00   0.0   0.066   0.000   73.9    54   56.2   74.0   9.87  .0737    0.000   212    5    100.0   10 
 9/25/17  1:40a   55.5   55.5   55.4    91   52.9   1.0   SSW   0.17   3.0   SSW   55.5   55.6   55.6   53.1  30.122  0.00  0.00     0     0.00      0     0.0  0.00   0.0   0.066   0.000   73.9    54   56.2   74.0   9.87  .0737    0.000   213    5    100.0   10 
 9/25/17  1:50a   55.5   55.6   55.5    91   52.9   0.0    SW   0.00   2.0    SW   55.5   55.6   55.6   53.1  30.122  0.00  0.00     0     0.00      0     0.0  0.00   0.0   0.066   0.000   73.8    54   56.1   73.9   9.87  .0738    0.000   212    5    100.0   10 
 9/25/17  2:00a   55.4   55.6   55.4    90   52.5   0.0    SW   0.00   2.0    SW   55.4   55.5   55.5   53.0  30.115  0.00  0.00     0     0.00      0     0.0  0.00   0.0   0.067   0.000   73.8    54   56.1   73.9   9.87  .0737    0.000   212    5    100.0   10 
 9/25/17  2:10a   55.0   55.4   55.0    91   52.4   0.0    SW   0.00   1.0    SW   55.0   55.1   55.1   52.6  30.112  0.00  0.00     0     0.00      0     0.0  0.00   0.0   0.069   0.000   73.8    54   56.1   73.9   9.87  .0737    0.000   211    5    100.0   10 
 9/25/17  2:20a   55.1   55.2   55.0    91   52.5   1.0   NNW   0.17   4.0   NNW   55.1   55.2   55.2   52.7  30.111  0.00  0.00     0     0.00      0     0.0  0.00   0.0   0.069   0.000   73.8    54   56.1   73.9   9.87  .0737    0.000   213    5    100.0   10 
 9/25/17  2:30a   55.3   55.3   55.1    90   52.4   2.0     E   0.33   8.0   ENE   55.3   55.4   55.4   52.9  30.102  0.00  0.00     0     0.00      0     0.0  0.00   0.0   0.067   0.000   73.7    54   56.0   73.7   9.88  .0737    0.000   210    5    100.0   10 
 9/25/17  2:40a   56.1   56.1   55.3    89   52.9   3.0   ENE   0.50   7.0     E   56.1   56.2   56.2   53.7  30.107  0.00  0.00     0     0.00      0     0.0  0.00   0.0   0.062   0.000   73.7    54   56.0   73.7   9.88  .0737    0.000   212    5    100.0   10 
 9/25/17  2:50a   56.7   56.7   56.2    87   52.9   4.0     E   0.67   8.0   ESE   56.6   56.7   56.6   54.1  30.109  0.00  0.00     0     0.00      0     0.0  0.00   0.0   0.058   0.000   73.7    54   56.0   73.7   9.88  .0737    0.000   213    5    100.0   10 
 9/25/17  3:00a   56.8   56.8   56.7    86   52.7   4.0     E   0.67   9.0   ENE   56.8   56.7   56.7   54.2  30.106  0.00  0.00     0     0.00      0     0.0  0.00   0.0   0.057   0.000   73.6    54   55.9   73.6   9.88  .0738    0.000   212    5    100.0   10 
 9/25/17  3:10a   56.9   56.9   56.8    85   52.4   3.0   ENE   0.50   9.0   ENE   56.9   56.8   56.8   54.3  30.107  0.00  0.00     0     0.00      0     0.0  0.00   0.0   0.056   0.000   73.6    54   55.9   73.6   9.88  .0738    0.000   212    5    100.0   10 
 9/25/17  3:20a   56.8   56.9   56.8    85   52.3   2.0   ESE   0.33   6.0   ESE   56.8   56.7   56.7   54.2  30.108  0.00  0.00     0     0.00      0     0.0  0.00   0.0   0.057   0.000   73.6    54   55.9   73.6   9.88  .0738    0.000   211    5    100.0   10 
 9/25/17  3:30a   56.3   56.8   56.2    86   52.2   2.0     S   0.33   4.0     S   56.3   56.2   56.2   53.7  30.101  0.00  0.00     0     0.00      0     0.0  0.00   0.0   0.060   0.000   73.6    54   55.9   73.6   9.88  .0737    0.000   212    5    100.0   10 
 9/25/17  3:40a   56.7   56.7   56.3    86   52.6   3.0   ESE   0.50   7.0   ESE   56.7   56.6   56.6   54.1  30.103  0.00  0.00     0     0.00      0     0.0  0.00   0.0   0.058   0.000   73.5    54   55.8   73.5   9.88  .0738    0.000   211    5    100.0   10 
 9/25/17  3:50a   57.2   57.2   56.7    85   52.7   3.0   ESE   0.50  14.0     E   57.2   57.1   57.1   54.6  30.099  0.00  0.00     0     0.00      0     0.0  0.00   0.0   0.054   0.000   73.5    53   55.3   73.4   9.71  .0738    0.000   213    5    100.0   10 
 9/25/17  4:00a   57.5   57.5   57.2    84   52.7   4.0   ESE   0.67  11.0   SSE   57.5   57.4   57.4   54.9  30.092  0.00  0.00     0     0.00      0     0.0  0.00   0.0   0.052   0.000   73.5    53   55.3   73.4   9.71  .0738    0.001   211    5    100.0   10 
 9/25/17  4:10a   57.7   57.7   57.5    84   52.9   6.0     E   1.00  11.0   ESE   56.8   57.6   56.7   54.2  30.089  0.00  0.00     0     0.00      0     0.0  0.00   0.0   0.051   0.000   73.5    53   55.3   73.4   9.71  .0738    0.000   213    5    100.0   10 
 9/25/17  4:20a   57.8   57.8   57.7    83   52.7   5.0   ESE   0.83  12.0     E   57.4   57.7   57.3   54.8  30.091  0.00  0.00     0     0.00      0     0.0  0.00   0.0   0.050   0.000   73.4    53   55.2   73.3   9.71  .0738    0.000   212    5    100.0   10 
 9/25/17  4:30a   57.9   57.9   57.8    82   52.4   3.0   ESE   0.50  12.0   SSE   57.9   57.7   57.7   55.2  30.099  0.00  0.00     0     0.00      0     0.0  0.00   0.0   0.049   0.000   73.4    53   55.2   73.3   9.71  .0738    0.000   211    5    100.0   10 
 9/25/17  4:40a   57.6   57.8   57.6    82   52.1   3.0   ENE   0.50   8.0   ENE   57.6   57.4   57.4   54.9  30.108  0.00  0.00     0     0.00      0     0.0  0.00   0.0   0.051   0.000   73.4    53   55.2   73.3   9.71  .0738    0.000   210    5    100.0   10 
 9/25/17  4:50a   57.0   57.6   57.0    83   51.9   1.0   SSE   0.17   5.0     E   57.0   56.8   56.8   54.3  30.117  0.00  0.00     0     0.00      0     0.0  0.00   0.0   0.056   0.000   73.4    53   55.2   73.3   9.71  .0738    0.000   212    5    100.0   10 
 9/25/17  5:00a   56.5   57.0   56.5    84   51.7   1.0    SE   0.17   3.0     W   56.5   56.4   56.4   53.9  30.111  0.00  0.00     0     0.00      0     0.0  0.00   0.0   0.059   0.000   73.3    53   55.1   73.2   9.72  .0738    0.001   210    5    100.0   10 
 9/25/17  5:10a   56.1   56.5   56.0    86   52.0   1.0     S   0.17   3.0    SW   56.1   56.0   56.0   53.5  30.115  0.00  0.00     0     0.00      0     0.0  0.00   0.0   0.062   0.000   73.3    53   55.1   73.2   9.72  .0739    0.000   214    5    100.0   10 
 9/25/17  5:20a   56.0   56.2   56.0    86   51.9   1.0   SSW   0.17   4.0   SSW   56.0   55.9   55.9   53.4  30.117  0.00  0.00     0     0.00      0     0.0  0.00   0.0   0.063   0.000   73.3    53   55.1   73.2   9.72  .0739    0.000   212    5    100.0   10 
 9/25/17  5:30a   55.7   56.0   55.7    87   51.9   0.0   WSW   0.00   3.0   SSW   55.7   55.7   55.7   53.2  30.113  0.00  0.00     0     0.00      0     0.0  0.00   0.0   0.065   0.000   73.3    53   55.1   73.2   9.72  .0738    0.000   211    5    100.0   10 
 9/25/17  5:40a   55.7   55.7   55.7    88   52.2   0.0    SW   0.00   3.0    SW   55.7   55.7   55.7   53.2  30.109  0.00  0.00     0     0.00      0     0.0  0.00   0.0   0.065   0.000   73.3    53   55.1   73.2   9.72  .0738    0.000   213    5    100.0   10 
 9/25/17  5:50a   55.8   55.8   55.7    88   52.3   2.0     W   0.33   7.0   WNW   55.8   55.8   55.8   53.3  30.123  0.00  0.00     0     0.00      0     0.0  0.00   0.0   0.064   0.000   73.2    53   55.0   73.0   9.72  .0739    0.000   212    5    100.0   10 
 9/25/17  6:00a   55.8   55.9   55.8    89   52.6   4.0   WSW   0.67   9.0     W   55.6   55.9   55.7   53.2  30.138  0.00  0.00     0     0.00      0     0.0  0.00   0.0   0.064   0.000   73.2    53   55.0   73.0   9.72  .0739    0.001   213    5    100.0   10 
 9/25/17  6:10a   55.4   55.8   55.4    89   52.2   1.0     S   0.17   4.0   SSE   55.4   55.5   55.5   53.0  30.143  0.00  0.00     0     0.00      0     0.0  0.00   0.0   0.067   0.000   73.2    53   55.0   73.0   9.72  .0739    0.000   210    5    100.0   10 
 9/25/17  6:20a   55.1   55.4   55.1    89   51.9   0.0   SSE   0.00   2.0   SSE   55.1   55.2   55.2   52.7  30.140  0.00  0.00     0     0.00      0     0.0  0.00   0.0   0.069   0.000   73.2    53   55.0   73.0   9.72  .0739    0.000   212    5    100.0   10 
 9/25/17  6:30a   55.1   55.1   55.0    89   51.9   0.0   SSE   0.00   2.0   SSE   55.1   55.2   55.2   52.7  30.145  0.00  0.00     0     0.00      0     0.0  0.00   0.0   0.069   0.000   73.1    53   54.9   72.9   9.73  .0740    0.000   213    5    100.0   10 
 9/25/17  6:40a   55.2   55.2   55.1    89   52.0   0.0   SSE   0.00   1.0   SSE   55.2   55.3   55.3   52.8  30.144  0.00  0.00     0     0.00      0     0.0  0.00   0.0   0.068   0.000   73.1    53   54.9   72.9   9.73  .0740    0.000   213    5    100.0   10 
 9/25/17  6:50a   55.1   55.2   55.1    89   51.9   0.0   ESE   0.00   2.0    SE   55.1   55.2   55.2   52.7  30.143  0.00  0.00     0     0.00      0     0.0  0.00   0.0   0.069   0.000   73.1    53   54.9   72.9   9.73  .0740    0.000   212    5    100.0   10 
 9/25/17  7:00a   55.1   55.1   55.0    89   51.9   0.0   ESE   0.00   1.0   ESE   55.1   55.2   55.2   52.7  30.141  0.00  0.00     0     0.00      0     0.0  0.00   0.0   0.069   0.000   73.0    53   54.9   72.8   9.73  .0740    0.000   213    5    100.0   10 
 9/25/17  7:10a   55.1   55.1   55.0    90   52.2   0.0   ---   0.00   0.0   ---   55.1   55.2   55.2   52.7  30.138  0.00  0.00     0     0.00      0     0.0  0.00   0.0   0.069   0.000   73.0    54   55.4   72.9   9.89  .0739    0.000   212    5    100.0   10 
 9/25/17  7:20a   55.1   55.1   55.1    90   52.2   0.0   ESE   0.00   1.0   ESE   55.1   55.2   55.2   52.9  30.139  0.00  0.00     8     0.11     11     0.0  0.00   0.0   0.069   0.000   73.1    53   54.9   72.9   9.73  .0739    0.000   211    5    100.0   10 
 9/25/17  7:30a   55.2   55.2   55.1    90   52.3   0.0   ESE   0.00   1.0   ESE   55.2   55.3   55.3   53.1  30.141  0.00  0.00    12     0.17     14     0.0  0.00   0.0   0.068   0.000   73.2    53   55.0   73.0   9.72  .0739    0.000   213    5    100.0   10 
 9/25/17  7:40a   55.4   55.4   55.2    90   52.5   0.0   ESE   0.00   1.0   ESE   55.4   55.5   55.5   53.5  30.140  0.00  0.00    19     0.27     21     0.0  0.00   0.0   0.067   0.000   73.3    53   55.1   73.2   9.72  .0739    0.000   210    5    100.0   10 
 9/25/17  7:50a   55.6   55.6   55.4    90   52.7   0.0   ESE   0.00   1.0   ESE   55.6   55.7   55.7   54.9  30.141  0.00  0.00    23     0.33     28     0.0  0.00   0.0   0.065   0.000   73.4    53   55.2   73.3   9.71  .0739    0.000   212    5    100.0   10 
 9/25/17  8:00a   55.8   55.8   55.6    91   53.2   0.0   ESE   0.00   2.0   ESE   55.8   55.9   55.9   55.4  30.145  0.00  0.00    28     0.40     32     0.0  0.00   0.0   0.064   0.000   73.5    53   55.3   73.4   9.71  .0739    0.000   210    5    100.0   10 
 9/25/17  8:10a   56.0   56.0   55.8    91   53.4   0.0     E   0.00   4.0   NNE   56.0   56.1   56.1   55.9  30.143  0.00  0.00    35     0.50     37     0.0  0.00   0.0   0.063   0.000   73.6    54   55.9   73.6   9.88  .0739    0.000   209    5    100.0   10 
 9/25/17  8:20a   56.4   56.4   56.0    91   53.8   0.0   ENE   0.00   2.0     E   56.4   56.5   56.5   56.1  30.140  0.00  0.00    34     0.49     37     0.0  0.00   0.0   0.060   0.000   73.7    54   56.0   73.7   9.88  .0738    0.000   212    5    100.0   10 
 9/25/17  8:30a   56.8   56.8   56.4    91   54.2   0.0   ENE   0.00   2.0   ENE   56.8   56.9   56.9   57.0  30.141  0.00  0.00    44     0.63     51     0.0  0.00   0.0   0.057   0.000   73.8    54   56.1   73.9   9.87  .0738    0.000   212    5    100.0   10 
 9/25/17  8:40a   57.5   57.5   56.8    91   54.9   1.0   ENE   0.17   3.0   ENE   57.5   57.6   57.6   59.1  30.148  0.00  0.00    79     1.13    107     0.0  0.00   0.0   0.052   0.000   73.9    54   56.2   74.0   9.87  .0738    0.000   213    5    100.0   10 
 9/25/17  8:50a   58.1   58.1   57.5    91   55.5   0.0     E   0.00   2.0     E   58.1   58.2   58.2   61.3  30.145  0.00  0.00   124     1.78    132     0.0  0.00   0.0   0.048   0.000   74.0    54   56.3   74.1   9.87  .0738    0.000   210    5    100.0   10 
 9/25/17  9:00a   58.9   58.9   58.1    92   56.6   1.0     E   0.17   5.0     E   58.9   59.2   59.2   62.5  30.147  0.00  0.00   133     1.91    148     0.0  0.00   0.0   0.042   0.000   74.0    54   56.3   74.1   9.87  .0738    0.002   210    5    100.0   10 
 9/25/17  9:10a   59.8   59.8   58.9    91   57.2   2.0   ENE   0.33   6.0   ENE   59.8   60.1   60.1   63.3  30.153  0.00  0.00   131     1.88    153     0.0  0.00   0.0   0.036   0.000   74.0    54   56.3   74.1   9.87  .0738    0.000   212    5    100.0   10 
 9/25/17  9:20a   60.4   60.4   59.8    90   57.5   2.0     E   0.33   9.0    NE   60.4   60.7   60.7   63.3  30.154  0.00  0.00   119     1.71    127     0.0  0.00   0.0   0.032   0.000   74.1    54   56.4   74.2   9.87  .0738    0.000   211    5    100.0   10 
 9/25/17  9:30a   60.9   60.9   60.4    90   57.9   1.0   ENE   0.17   4.0   ENE   60.9   61.3   61.3   64.0  30.148  0.00  0.00   125     1.79    130     0.0  0.00   0.0   0.028   0.000   74.2    54   56.5   74.4   9.87  .0738    0.000   213    5    100.0   10 
 9/25/17  9:40a   61.1   61.1   60.9    89   57.8   1.0     E   0.17   3.0     E   61.1   61.5   61.5   64.7  30.150  0.00  0.00   147     2.11    163     0.0  0.00   0.0   0.027   0.000   74.3    54   56.6   74.5   9.86  .0737    0.000   210    5    100.0   10 
 9/25/17  9:50a   61.4   61.4   61.1    88   57.8   1.0     E   0.17   3.0     E   61.4   61.8   61.8   65.3  30.147  0.00  0.00   159     2.28    186     0.0  0.00   0.0   0.025   0.000   74.3    54   56.6   74.5   9.86  .0737    0.000   212    5    100.0   10 
 9/25/17 10:00a   61.7   61.7   61.4    88   58.1   0.0     E   0.00   2.0     E   61.7   62.1   62.1   67.2  30.144  0.00  0.00   214     3.07    237     0.0  0.00   0.0   0.023   0.000   74.4    54   56.7   74.6   9.86  .0737    0.003   213    5    100.0   10 
 9/25/17 10:10a   61.7   61.7   61.6    87   57.8   0.0   ---   0.00   0.0   ---   61.7   62.1   62.1   66.7  30.146  0.00  0.00   207     2.97    223     0.0  0.00   0.0   0.023   0.000   74.5    54   56.8   74.8   9.86  .0737    0.000   212    5    100.0   10 
 9/25/17 10:20a   61.2   61.7   61.2    86   57.0   0.0   ---   0.00   0.0   ---   61.2   61.5   61.5   66.1  30.151  0.00  0.00   217     3.11    225     0.0  0.00   0.0   0.026   0.000   74.5    54   56.8   74.8   9.86  .0737    0.000   212    5    100.0   10 
 9/25/17 10:30a   60.8   61.2   60.8    87   56.9   0.0   ---   0.00   0.0   ---   60.8   61.1   61.1   66.0  30.150  0.00  0.00   231     3.31    239     0.0  0.00   0.0   0.029   0.000   74.6    54   56.9   74.9   9.86  .0737    0.000   213    5    100.0   10 
 9/25/17 10:40a   61.8   61.8   60.8    89   58.5   0.0   ENE   0.00   2.0   ENE   61.8   62.2   62.2   67.9  30.141  0.00  0.00   264     3.78    301     0.0  0.00   0.0   0.022   0.000   74.7    54   56.9   75.0   9.86  .0737    0.000   210    5    100.0   10 
 9/25/17 10:50a   63.3   63.3   61.8    88   59.7   1.0   ENE   0.17   4.0   ENE   63.3   63.9   63.9   72.0  30.139  0.00  0.00   374     5.36    464     0.0  0.00   0.0   0.012   0.000   74.8    54   57.0   75.2   9.85  .0736    0.000   211    5    100.0   10 
 9/25/17 11:00a   64.6   64.6   63.4    86   60.3   2.0    NE   0.33   8.0   ENE   64.6   65.4   65.4   72.5  30.134  0.00  0.00   330     4.73    366     0.0  0.00   0.0   0.003   0.000   74.9    54   57.1   75.3   9.85  .0736    0.006   213    5    100.0   10 
 9/25/17 11:10a   63.5   64.8   63.5    82   57.9   4.0     N   0.67   8.0   NNE   63.5   64.0   64.0   70.8  30.136  0.00  0.00   331     4.74    383     0.0  0.00   0.0   0.010   0.000   75.1    54   57.3   75.5   9.85  .0736    0.000   212    5    100.0   10 
 9/25/17 11:20a   63.0   63.4   63.0    85   58.4   5.0    NE   0.83   9.0     E   63.0   63.5   63.5   69.8  30.135  0.00  0.00   309     4.43    320     0.0  0.00   0.0   0.014   0.000   75.2    54   57.4   75.6   9.85  .0735    0.000   212    5    100.0   10 
 9/25/17 11:30a   63.1   63.1   63.0    85   58.5   4.0    NE   0.67   7.0   NNE   63.1   63.6   63.6   70.2  30.139  0.00  0.00   329     4.72    336     0.0  0.00   0.0   0.013   0.000   75.3    54   57.5   75.7   9.84  .0735    0.000   211    5    100.0   10 
 9/25/17 11:40a   63.0   63.1   63.0    85   58.4   3.0    NE   0.50   5.0   ENE   63.0   63.5   63.5   69.9  30.139  0.00  0.00   323     4.63    341     0.0  0.00   0.0   0.014   0.000   75.3    54   57.5   75.7   9.84  .0735    0.000   212    5    100.0   10 
 9/25/17 11:50a   63.2   63.2   62.9    85   58.6   2.0   ENE   0.33   4.0    NE   63.2   63.7   63.7   71.4  30.140  0.00  0.00   392     5.62    473     0.0  0.00   0.0   0.012   0.000   75.4    54   57.6   75.7   9.84  .0735    0.000   210    5    100.0   10 
 9/25/17 12:00p   61.8   63.3   61.8    84   56.9   3.0   NNE   0.50   6.0    NE   61.8   62.1   62.1   69.6  30.143  0.00  0.00   391     5.61    522     0.0  0.00   0.0   0.022   0.000   75.4    54   57.6   75.7   9.84  .0735    0.008   214    5    100.0   10 
 9/25/17 12:10p   62.6   62.6   61.5    87   58.7   3.0   ENE   0.50   8.0   ENE   62.6   63.1   63.1   69.2  30.137  0.00  0.00   314     4.50    401     0.0  0.00   0.0   0.017   0.000   75.5    54   57.7   75.8   9.84  .0735    0.000   210    5    100.0   10 
 9/25/17 12:20p   64.6   64.6   62.6    86   60.3   4.0   ENE   0.67   9.0   ENE   64.6   65.4   65.4   74.4  30.132  0.00  0.00   474     6.79    548     0.0  0.00   0.0   0.003   0.000   75.6    55   58.3   76.0  10.03  .0734    0.000   211    5    100.0   10 
 9/25/17 12:30p   65.8   65.8   64.7    83   60.5   5.0    NE   0.83  10.0    NE   65.8   66.7   66.7   75.5  30.130  0.00  0.00   461     6.61    807     0.0  0.00   0.0   0.000   0.006   75.7    55   58.4   76.1  10.02  .0734    0.000   210    5    100.0   10 
 9/25/17 12:40p   65.6   66.4   65.6    80   59.3   5.0    NE   0.83   9.0    NE   65.6   66.4   66.4   77.6  30.131  0.00  0.00   714    10.24    752     0.0  0.00   0.0   0.000   0.004   75.9    55   58.6   76.2  10.01  .0734    0.000   211    5    100.0   10 
 9/25/17 12:50p   65.3   65.5   64.9    82   59.7   3.0   NNE   0.50   6.0   NNW   65.3   66.1   66.1   76.9  30.135  0.00  0.00   624     8.95    705     0.0  0.00   0.0   0.000   0.002   75.9    55   58.6   76.2  10.01  .0734    0.000   212    5    100.0   10 
 9/25/17  1:00p   66.2   66.2   65.3    82   60.5   4.0    NE   0.67  10.0   ENE   66.2   67.2   67.2   77.4  30.132  0.00  0.00   562     8.06    613     0.0  0.00   0.0   0.000   0.008   75.9    55   58.6   76.2  10.01  .0734    0.012   211    5    100.0   10 
 9/25/17  1:10p   67.3   67.3   66.2    81   61.3   5.0    NE   0.83   9.0    NE   67.3   68.5   68.5   77.3  30.131  0.00  0.00   466     6.68    557     0.0  0.00   0.0   0.000   0.016   75.9    55   58.6   76.2  10.01  .0734    0.000   211    5    100.0   10 
 9/25/17  1:20p   66.8   67.3   66.8    80   60.4   6.0    NE   1.00   9.0    NE   66.8   67.9   67.9   76.6  30.131  0.00  0.00   458     6.57    494     0.0  0.00   0.0   0.000   0.013   76.0    55   58.7   76.3  10.01  .0734    0.000   213    5    100.0   10 
 9/25/17  1:30p   66.3   66.9   66.3    80   59.9   6.0    NE   1.00   9.0    NE   66.3   67.3   67.3   76.4  30.129  0.00  0.00   488     7.00    554     0.0  0.00   0.0   0.000   0.009   76.1    55   58.8   76.4  10.01  .0734    0.000   209    5    100.0   10 
 9/25/17  1:40p   66.6   66.6   66.3    81   60.6   4.0    NE   0.67   7.0    NE   66.6   67.7   67.7   76.3  30.126  0.00  0.00   451     6.47    475     0.0  0.00   0.0   0.000   0.011   76.2    55   58.9   76.5  10.00  .0733    0.000   212    5    100.0   10 
 9/25/17  1:50p   65.5   66.8   65.5    79   58.8   4.0     N   0.67   7.0     N   65.5   66.2   66.2   74.6  30.128  0.00  0.00   445     6.38    508     0.0  0.00   0.0   0.000   0.003   76.2    54   58.3   76.4   9.83  .0734    0.000   213    5    100.0   10 
 9/25/17  2:00p   64.3   65.5   64.3    82   58.7   3.0     N   0.50   5.0   NNE   64.3   64.9   64.9   73.3  30.126  0.00  0.00   445     6.38    520     0.0  0.00   0.0   0.005   0.000   76.2    54   58.3   76.4   9.83  .0733    0.011   211    5    100.0   10 
 9/25/17  2:10p   64.8   64.9   64.3    83   59.5   3.0     N   0.50   7.0   NNE   64.8   65.5   65.5   73.9  30.123  0.00  0.00   439     6.29    517     0.0  0.00   0.0   0.001   0.000   76.2    54   58.3   76.4   9.83  .0733    0.000   212    5    100.0   10 
 9/25/17  2:20p   65.5   65.5   64.7    83   60.2   3.0   NNE   0.50   7.0   NNE   65.5   66.4   66.4   74.4  30.122  0.00  0.00   410     5.88    448     0.0  0.00   0.0   0.000   0.003   76.2    55   58.9   76.5  10.00  .0733    0.000   213    5    100.0   10 
 9/25/17  2:30p   65.7   65.7   65.4    83   60.4   4.0    NE   0.67   6.0   NNE   65.7   66.6   66.6   74.0  30.124  0.00  0.00   375     5.38    401     0.0  0.00   0.0   0.000   0.005   76.2    55   58.9   76.5  10.00  .0733    0.000   211    5    100.0   10 
 9/25/17  2:40p   66.4   66.4   65.7    82   60.7   3.0   NNE   0.50   5.0     N   66.4   67.4   67.4   74.8  30.126  0.00  0.00   375     5.38    392     0.0  0.00   0.0   0.000   0.010   76.2    55   58.9   76.5  10.00  .0733    0.000   208    5    100.0   10 
 9/25/17  2:50p   67.2   67.2   66.4    81   61.2   3.0    NE   0.50   5.0     N   67.2   68.4   68.4   75.1  30.126  0.00  0.00   334     4.79    380     0.0  0.00   0.0   0.000   0.015   76.2    55   58.9   76.5  10.00  .0733    0.000   211    5    100.0   10 
 9/25/17  3:00p   66.7   67.4   66.7    79   60.0   4.0    NE   0.67   5.0   NNE   66.7   67.7   67.7   74.0  30.127  0.00  0.00   314     4.50    316     0.0  0.00   0.0   0.000   0.012   76.3    55   58.9   76.6  10.00  .0733    0.009   213    5    100.0   10 
 9/25/17  3:10p   66.9   66.9   66.7    80   60.5   3.0    NE   0.50   6.0    NE   66.9   68.0   68.0   74.5  30.127  0.00  0.00   319     4.57    327     0.0  0.00   0.0   0.000   0.013   76.4    55   59.0   76.7   9.99  .0733    0.000   213    5    100.0   10 
 9/25/17  3:20p   66.7   67.0   66.7    80   60.3   4.0    NE   0.67   6.0    NE   66.7   67.7   67.7   74.3  30.130  0.00  0.00   317     4.54    323     0.0  0.00   0.0   0.000   0.012   76.4    55   59.0   76.7   9.99  .0733    0.000   212    5    100.0   10 
 9/25/17  3:30p   67.1   67.1   66.7    80   60.7   3.0    NE   0.50   5.0   NNE   67.1   68.2   68.2   74.3  30.127  0.00  0.00   288     4.13    318     0.0  0.00   0.0   0.000   0.015   76.4    55   59.0   76.7   9.99  .0733    0.000   213    5    100.0   10 
 9/25/17  3:40p   67.4   67.4   67.1    79   60.7   3.0    NE   0.50   5.0    NE   67.4   68.5   68.5   74.3  30.119  0.00  0.00   273     3.91    304     0.0  0.00   0.0   0.000   0.017   76.4    55   59.0   76.7   9.99  .0733    0.000   211    5    100.0   10 
 9/25/17  3:50p   68.0   68.0   67.4    79   61.2   3.0    NE   0.50   5.0   NNE   68.0   69.2   69.2   76.6  30.122  0.00  0.00   333     4.77    360     0.0  0.00   0.0   0.000   0.021   76.4    55   59.0   76.7   9.99  .0733    0.000   212    5    100.0   10 
 9/25/17  4:00p   68.1   68.1   68.0    77   60.6   3.0    NE   0.50   5.0   NNE   68.1   69.2   69.2   74.5  30.123  0.00  0.00   239     3.43    279     0.0  0.00   0.0   0.000   0.022   76.4    55   59.0   76.7   9.99  .0733    0.007   212    5    100.0   10 
 9/25/17  4:10p   67.9   68.1   67.9    77   60.4   2.0    NE   0.33   4.0   NNE   67.9   68.9   68.9   74.8  30.120  0.00  0.00   260     3.73    276     0.0  0.00   0.0   0.000   0.020   76.4    55   59.0   76.7   9.99  .0733    0.000   213    5    100.0   10 
 9/25/17  4:20p   68.1   68.1   67.7    77   60.6   2.0    NE   0.33   4.0    NE   68.1   69.2   69.2   76.5  30.117  0.00  0.00   311     4.46    390     0.0  0.00   0.0   0.000   0.022   76.4    55   59.0   76.7   9.99  .0733    0.000   213    5    100.0   10 
 9/25/17  4:30p   68.3   68.4   68.1    76   60.4   3.0    NE   0.50   4.0     N   68.3   69.3   69.3   75.5  30.114  0.00  0.00   256     3.67    308     0.0  0.00   0.0   0.000   0.023   76.4    55   59.0   76.7   9.99  .0733    0.000   209    5    100.0   10 
 9/25/17  4:40p   68.8   68.8   68.3    75   60.6   2.0    NE   0.33   3.0    NE   68.8   69.8   69.8   74.6  30.113  0.00  0.00   204     2.92    271     0.0  0.00   0.0   0.000   0.026   76.5    55   59.1   76.8   9.99  .0732    0.000   213    5    100.0   10 
 9/25/17  4:50p   68.0   68.8   67.9    76   60.2   3.0   ENE   0.50   4.0     N   68.0   69.0   69.0   75.0  30.112  0.00  0.00   237     3.40    374     0.0  0.00   0.0   0.000   0.021   76.6    55   59.2   76.9   9.99  .0732    0.000   213    5    100.0   10 
 9/25/17  5:00p   66.9   68.0   66.9    75   58.7   3.0   NNE   0.50   5.0     N   66.9   67.6   67.6   71.8  30.111  0.00  0.00   176     2.52    193     0.0  0.00   0.0   0.000   0.013   76.6    55   59.2   76.9   9.99  .0732    0.006   212    5    100.0   10 
 9/25/17  5:10p   65.9   66.8   65.9    79   59.2   3.0    NE   0.50   5.0    NE   65.9   66.7   66.7   70.6  30.107  0.00  0.00   160     2.29    167     0.0  0.00   0.0   0.000   0.006   76.7    55   59.3   77.0   9.98  .0732    0.000   209    5    100.0   10 
 9/25/17  5:20p   65.7   66.0   65.6    80   59.4   2.0   NNE   0.33   5.0     N   65.7   66.5   66.5   70.7  30.103  0.00  0.00   163     2.34    167     0.0  0.00   0.0   0.000   0.005   76.7    55   59.3   77.0   9.98  .0732    0.000   213    5    100.0   10 
 9/25/17  5:30p   66.0   66.0   65.7    79   59.3   2.0    NE   0.33   5.0   ENE   66.0   66.8   66.8   71.2  30.107  0.00  0.00   162     2.32    214     0.0  0.00   0.0   0.000   0.007   76.7    55   59.3   77.0   9.98  .0732    0.000   213    5    100.0   10 
 9/25/17  5:40p   66.0   66.1   66.0    79   59.3   2.0    NE   0.33   4.0   NNE   66.0   66.8   66.8   70.4  30.101  0.00  0.00   136     1.95    144     0.0  0.00   0.0   0.000   0.007   76.7    55   59.3   77.0   9.98  .0732    0.000   210    5    100.0   10 
 9/25/17  5:50p   65.2   66.0   65.2    80   58.9   3.0    NE   0.50   5.0   NNE   65.2   65.9   65.9   68.4  30.101  0.00  0.00   102     1.46    109     0.0  0.00   0.0   0.000   0.001   76.8    55   59.4   77.1   9.98  .0732    0.000   213    5    100.0   10 
 9/25/17  6:00p   64.9   65.2   64.9    81   58.9   2.0   ENE   0.33   5.0   NNE   64.9   65.6   65.6   67.1  30.101  0.00  0.00    75     1.08     88     0.0  0.00   0.0   0.001   0.000   76.8    55   59.4   77.1   9.98  .0732    0.003   212    5    100.0   10 
 9/25/17  6:10p   64.7   64.9   64.7    81   58.7   2.0    NE   0.33   5.0   ENE   64.7   65.4   65.4   66.1  30.100  0.00  0.00    54     0.77     63     0.0  0.00   0.0   0.002   0.000   76.8    55   59.4   77.1   9.98  .0732    0.000   212    5    100.0   10 
 9/25/17  6:20p   64.5   64.7   64.5    82   58.9   2.0   ENE   0.33   4.0   ENE   64.5   65.1   65.1   65.3  30.099  0.00  0.00    42     0.60     47     0.0  0.00   0.0   0.003   0.000   76.8    55   59.4   77.1   9.98  .0732    0.000   210    5    100.0   10 
 9/25/17  6:30p   64.3   64.5   64.3    82   58.7   3.0   ENE   0.50   5.0   ENE   64.3   64.9   64.9   64.5  30.100  0.00  0.00    28     0.40     35     0.0  0.00   0.0   0.005   0.000   76.6    55   59.2   76.9   9.99  .0732    0.000   209    5    100.0   10 
 9/25/17  6:40p   64.0   64.3   64.0    82   58.4   3.0    NE   0.50   5.0   ENE   64.0   64.5   64.5   63.6  30.101  0.00  0.00    17     0.24     21     0.0  0.00   0.0   0.007   0.000   76.3    55   58.9   76.6  10.00  .0732    0.000   210    5    100.0   10 
 9/25/17  6:50p   63.8   64.0   63.8    83   58.5   2.0   ENE   0.33   5.0   ENE   63.8   64.3   64.3   62.4  30.102  0.00  0.00    11     0.16     14     0.0  0.00   0.0   0.008   0.000   76.1    55   58.8   76.4  10.01  .0733    0.000   213    5    100.0   10 
 9/25/17  7:00p   63.6   63.8   63.6    83   58.3   2.0   ENE   0.33   5.0   ENE   63.6   64.1   64.1   62.1  30.100  0.00  0.00     6     0.09      9     0.0  0.00   0.0   0.010   0.000   76.2    55   58.9   76.5  10.00  .0733    0.001   212    5    100.0   10 
 9/25/17  7:10p   63.5   63.6   63.5    83   58.2   2.0    NE   0.33   4.0   ENE   63.5   64.0   64.0   61.9  30.098  0.00  0.00     0     0.00      0     0.0  0.00   0.0   0.010   0.000   76.3    55   58.9   76.6  10.00  .0732    0.000   211    5    100.0   10 
 9/25/17  7:20p   63.3   63.5   63.3    84   58.4   1.0    NE   0.17   3.0    NE   63.3   63.8   63.8   61.7  30.097  0.00  0.00     0     0.00      0     0.0  0.00   0.0   0.012   0.000   76.4    55   59.0   76.7   9.99  .0732    0.000   213    5    100.0   10 
 9/25/17  7:30p   63.1   63.3   63.1    84   58.2   1.0    NE   0.17   3.0    NE   63.1   63.6   63.6   61.5  30.102  0.00  0.00     0     0.00      0     0.0  0.00   0.0   0.013   0.000   76.5    55   59.1   76.8   9.99  .0732    0.000   209    5    100.0   10 
 9/25/17  7:40p   63.1   63.1   63.1    85   58.5   0.0   ENE   0.00   3.0   ENE   63.1   63.6   63.6   61.5  30.102  0.00  0.00     0     0.00      0     0.0  0.00   0.0   0.013   0.000   76.6    55   59.2   76.9   9.99  .0732    0.000   213    5    100.0   10 
 9/25/17  7:50p   63.1   63.1   63.1    85   58.5   0.0   ---   0.00   0.0   ---   63.1   63.6   63.6   61.5  30.100  0.00  0.00     0     0.00      0     0.0  0.00   0.0   0.013   0.000   76.8    55   59.4   77.1   9.98  .0732    0.000   213    5    100.0   10 
 9/25/17  8:00p   63.1   63.1   63.1    85   58.5   0.0   ---   0.00   0.0   ---   63.1   63.6   63.6   61.5  30.099  0.00  0.00     0     0.00      0     0.0  0.00   0.0   0.013   0.000   77.0    55   59.6   77.3   9.97  .0731    0.000   209    5    100.0   10 
 9/25/17  8:10p   63.1   63.2   63.1    85   58.5   0.0   ---   0.00   0.0   ---   63.1   63.6   63.6   61.5  30.102  0.00  0.00     0     0.00      0     0.0  0.00   0.0   0.013   0.000   77.0    55   59.6   77.3   9.97  .0731    0.000   211    5    100.0   10 
 9/25/17  8:20p   63.1   63.2   63.1    85   58.5   0.0   ---   0.00   0.0   ---   63.1   63.6   63.6   61.5  30.106  0.00  0.00     0     0.00      0     0.0  0.00   0.0   0.013   0.000   77.0    54   59.1   77.2   9.81  .0732    0.000   212    5    100.0   10 
 9/25/17  8:30p   63.1   63.1   63.1    85   58.5   0.0   ---   0.00   0.0   ---   63.1   63.6   63.6   61.5  30.108  0.00  0.00     0     0.00      0     0.0  0.00   0.0   0.013   0.000   76.9    54   59.0   77.1   9.81  .0732    0.000   211    5    100.0   10 
Email: AdamSPAM@StormwatchersRetreat.com (To send me email remove the word 'SPAM' from my email address.)